sensor_id;sensor_type;location;lat;lon;timestamp;pressure;altitude;pressure_sealevel;temperature;humidity
5777;BME280;2914;42.668;23.346;2023-02-18T00:01:52;95240.02;;;8.55;48.79
5777;BME280;2914;42.668;23.346;2023-02-18T00:07:05;95235.95;;;8.56;48.82
5777;BME280;2914;42.668;23.346;2023-02-18T00:09:34;95229.94;;;7.87;50.16
5777;BME280;2914;42.668;23.346;2023-02-18T00:12:03;95229.94;;;7.87;50.16
5777;BME280;2914;42.668;23.346;2023-02-18T00:14:32;95232.05;;;7.82;50.60
5777;BME280;2914;42.668;23.346;2023-02-18T00:17:02;95224.75;;;7.98;50.22
5777;BME280;2914;42.668;23.346;2023-02-18T00:19:31;95223.67;;;7.95;50.26
5777;BME280;2914;42.668;23.346;2023-02-18T00:22:00;95212.13;;;8.04;50.05
5777;BME280;2914;42.668;23.346;2023-02-18T00:24:29;95211.91;;;8.07;50.34
5777;BME280;2914;42.668;23.346;2023-02-18T00:26:58;95211.91;;;8.07;50.34
5777;BME280;2914;42.668;23.346;2023-02-18T00:29:27;95196.25;;;7.87;50.39
5777;BME280;2914;42.668;23.346;2023-02-18T00:31:57;95196.25;;;7.87;50.39
5777;BME280;2914;42.668;23.346;2023-02-18T00:34:26;95193.91;;;7.95;50.49
5777;BME280;2914;42.668;23.346;2023-02-18T00:36:56;95191.63;;;7.90;50.63
5777;BME280;2914;42.668;23.346;2023-02-18T00:39:25;95184.41;;;8.00;50.18
5777;BME280;2914;42.668;23.346;2023-02-18T00:41:54;95182.34;;;7.97;50.66
5777;BME280;2914;42.668;23.346;2023-02-18T00:44:23;95182.34;;;7.97;50.66
5777;BME280;2914;42.668;23.346;2023-02-18T00:46:52;95175.23;;;7.87;50.77
5777;BME280;2914;42.668;23.346;2023-02-18T00:49:21;95181.93;;;7.67;51.24
5777;BME280;2914;42.668;23.346;2023-02-18T00:51:50;95181.93;;;7.67;51.24
5777;BME280;2914;42.668;23.346;2023-02-18T00:54:19;95175.14;;;7.70;51.59
5777;BME280;2914;42.668;23.346;2023-02-18T00:56:48;95180.91;;;7.75;51.59
5777;BME280;2914;42.668;23.346;2023-02-18T00:59:17;95171.58;;;7.71;51.49
5777;BME280;2914;42.668;23.346;2023-02-18T01:01:47;95176.37;;;7.77;51.11
5777;BME280;2914;42.668;23.346;2023-02-18T01:04:16;95173.20;;;7.66;51.30
5777;BME280;2914;42.668;23.346;2023-02-18T01:06:45;95177.25;;;7.64;51.47
5777;BME280;2914;42.668;23.346;2023-02-18T01:09:14;95173.84;;;7.57;51.71
5777;BME280;2914;42.668;23.346;2023-02-18T01:11:43;95179.20;;;7.55;51.85
5777;BME280;2914;42.668;23.346;2023-02-18T01:14:12;95175.30;;;7.61;51.69
5777;BME280;2914;42.668;23.346;2023-02-18T01:16:41;95179.84;;;7.59;51.90
5777;BME280;2914;42.668;23.346;2023-02-18T01:19:11;95181.67;;;7.51;51.99
5777;BME280;2914;42.668;23.346;2023-02-18T01:21:40;95178.60;;;7.52;52.01
5777;BME280;2914;42.668;23.346;2023-02-18T01:24:09;95173.12;;;7.55;52.50
5777;BME280;2914;42.668;23.346;2023-02-18T01:26:38;95176.02;;;7.44;52.83
5777;BME280;2914;42.668;23.346;2023-02-18T01:29:07;95169.56;;;7.43;52.90
5777;BME280;2914;42.668;23.346;2023-02-18T01:31:36;95170.60;;;7.22;53.38
5777;BME280;2914;42.668;23.346;2023-02-18T01:34:05;95171.02;;;7.28;53.44
5777;BME280;2914;42.668;23.346;2023-02-18T01:36:34;95168.52;;;7.01;54.08
5777;BME280;2914;42.668;23.346;2023-02-18T01:39:04;95164.25;;;7.06;54.07
5777;BME280;2914;42.668;23.346;2023-02-18T01:41:33;95165.89;;;7.01;54.30
5777;BME280;2914;42.668;23.346;2023-02-18T01:44:14;95166.92;;;7.11;53.92
5777;BME280;2914;42.668;23.346;2023-02-18T01:46:44;95176.23;;;6.97;54.37
5777;BME280;2914;42.668;23.346;2023-02-18T01:49:16;95165.72;;;7.10;54.08
5777;BME280;2914;42.668;23.346;2023-02-18T01:51:47;95175.59;;;7.19;53.87
5777;BME280;2914;42.668;23.346;2023-02-18T01:54:19;95178.89;;;7.28;53.47
5777;BME280;2914;42.668;23.346;2023-02-18T01:56:52;95178.00;;;7.35;53.25
5777;BME280;2914;42.668;23.346;2023-02-18T01:59:24;95184.60;;;7.41;53.00
5777;BME280;2914;42.668;23.346;2023-02-18T02:01:54;95181.56;;;7.34;53.57
5777;BME280;2914;42.668;23.346;2023-02-18T02:04:24;95181.56;;;7.34;53.57
5777;BME280;2914;42.668;23.346;2023-02-18T02:06:53;95188.76;;;7.38;53.22
5777;BME280;2914;42.668;23.346;2023-02-18T02:12:10;95173.34;;;7.52;52.84
5777;BME280;2914;42.668;23.346;2023-02-18T02:14:59;95172.72;;;7.48;52.69
5777;BME280;2914;42.668;23.346;2023-02-18T02:17:32;95173.34;;;7.52;52.53
5777;BME280;2914;42.668;23.346;2023-02-18T02:20:31;95176.23;;;7.23;53.41
5777;BME280;2914;42.668;23.346;2023-02-18T02:23:36;95170.23;;;7.34;53.20
5777;BME280;2914;42.668;23.346;2023-02-18T02:29:29;95178.88;;;7.16;54.24
5777;BME280;2914;42.668;23.346;2023-02-18T02:32:14;95177.34;;;7.13;54.23
5777;BME280;2914;42.668;23.346;2023-02-18T02:34:51;95165.38;;;7.09;54.56
5777;BME280;2914;42.668;23.346;2023-02-18T02:37:27;95165.38;;;7.09;54.56
5777;BME280;2914;42.668;23.346;2023-02-18T02:40:02;95163.84;;;7.12;54.54
5777;BME280;2914;42.668;23.346;2023-02-18T02:42:38;95158.23;;;7.11;54.44
5777;BME280;2914;42.668;23.346;2023-02-18T02:45:10;95155.27;;;7.16;54.43
5777;BME280;2914;42.668;23.346;2023-02-18T02:47:44;95147.31;;;7.04;54.36
5777;BME280;2914;42.668;23.346;2023-02-18T02:50:16;95151.98;;;6.93;54.93
5777;BME280;2914;42.668;23.346;2023-02-18T02:52:49;95150.62;;;6.88;55.33
5777;BME280;2914;42.668;23.346;2023-02-18T02:55:17;95150.33;;;6.92;55.28
5777;BME280;2914;42.668;23.346;2023-02-18T02:57:49;95154.42;;;6.96;54.82
5777;BME280;2914;42.668;23.346;2023-02-18T03:00:22;95154.72;;;6.92;54.86
5777;BME280;2914;42.668;23.346;2023-02-18T03:03:05;95161.80;;;6.97;54.74
5777;BME280;2914;42.668;23.346;2023-02-18T03:05:43;95169.50;;;7.06;54.55
5777;BME280;2914;42.668;23.346;2023-02-18T03:08:20;95164.14;;;7.07;54.48
5777;BME280;2914;42.668;23.346;2023-02-18T03:10:55;95170.30;;;6.75;55.62
5777;BME280;2914;42.668;23.346;2023-02-18T03:16:32;95169.36;;;6.76;55.09
5777;BME280;2914;42.668;23.346;2023-02-18T03:19:06;95159.69;;;6.89;55.02
5777;BME280;2914;42.668;23.346;2023-02-18T03:21:38;95161.75;;;6.91;54.93
5777;BME280;2914;42.668;23.346;2023-02-18T03:24:11;95159.18;;;6.97;54.79
5777;BME280;2914;42.668;23.346;2023-02-18T03:26:43;95171.36;;;6.98;54.75
5777;BME280;2914;42.668;23.346;2023-02-18T03:29:14;95186.13;;;6.99;54.86
5777;BME280;2914;42.668;23.346;2023-02-18T03:31:47;95191.64;;;7.02;54.70
5777;BME280;2914;42.668;23.346;2023-02-18T03:34:19;95198.92;;;6.91;55.07
5777;BME280;2914;42.668;23.346;2023-02-18T03:36:49;95204.09;;;6.92;54.75
5777;BME280;2914;42.668;23.346;2023-02-18T03:39:20;95208.53;;;6.85;55.01
5777;BME280;2914;42.668;23.346;2023-02-18T03:41:51;95219.51;;;6.84;54.96
5777;BME280;2914;42.668;23.346;2023-02-18T03:44:20;95212.14;;;6.76;55.29
5777;BME280;2914;42.668;23.346;2023-02-18T03:46:49;95208.48;;;6.79;55.16
5777;BME280;2914;42.668;23.346;2023-02-18T03:49:18;95213.02;;;6.70;55.40
5777;BME280;2914;42.668;23.346;2023-02-18T03:51:47;95214.00;;;6.61;55.77
5777;BME280;2914;42.668;23.346;2023-02-18T03:54:17;95223.28;;;6.60;55.91
5777;BME280;2914;42.668;23.346;2023-02-18T03:56:47;95217.45;;;6.22;56.89
5777;BME280;2914;42.668;23.346;2023-02-18T03:59:16;95220.55;;;6.41;56.70
5777;BME280;2914;42.668;23.346;2023-02-18T04:01:45;95204.36;;;5.80;58.16
5777;BME280;2914;42.668;23.346;2023-02-18T04:04:14;95217.27;;;5.98;58.30
5777;BME280;2914;42.668;23.346;2023-02-18T04:06:43;95217.75;;;5.68;59.87
5777;BME280;2914;42.668;23.346;2023-02-18T04:09:12;95206.48;;;5.88;59.45
5777;BME280;2914;42.668;23.346;2023-02-18T04:11:41;95200.66;;;5.63;60.65
5777;BME280;2914;42.668;23.346;2023-02-18T04:14:12;95203.33;;;5.83;60.03
5777;BME280;2914;42.668;23.346;2023-02-18T04:16:42;95199.20;;;5.44;61.88
5777;BME280;2914;42.668;23.346;2023-02-18T04:19:11;95198.61;;;5.60;61.59
5777;BME280;2914;42.668;23.346;2023-02-18T04:21:40;95197.84;;;5.73;60.87
5777;BME280;2914;42.668;23.346;2023-02-18T04:24:09;95190.80;;;5.32;62.40
5777;BME280;2914;42.668;23.346;2023-02-18T04:26:38;95182.25;;;5.57;61.88
5777;BME280;2914;42.668;23.346;2023-02-18T04:29:07;95176.70;;;5.76;60.90
5777;BME280;2914;42.668;23.346;2023-02-18T04:31:36;95182.39;;;5.19;62.65
5777;BME280;2914;42.668;23.346;2023-02-18T04:34:05;95182.80;;;5.55;61.86
5777;BME280;2914;42.668;23.346;2023-02-18T04:36:35;95180.70;;;5.25;62.77
5777;BME280;2914;42.668;23.346;2023-02-18T04:39:04;95177.33;;;5.16;63.60
5777;BME280;2914;42.668;23.346;2023-02-18T04:41:34;95175.81;;;5.41;62.70
5777;BME280;2914;42.668;23.346;2023-02-18T04:44:03;95173.92;;;5.57;62.00
5777;BME280;2914;42.668;23.346;2023-02-18T04:46:32;95170.75;;;5.59;61.77
5777;BME280;2914;42.668;23.346;2023-02-18T04:49:01;95183.04;;;5.79;61.01
5777;BME280;2914;42.668;23.346;2023-02-18T04:51:30;95178.81;;;5.91;60.40
5777;BME280;2914;42.668;23.346;2023-02-18T04:53:59;95187.19;;;5.96;60.22
5777;BME280;2914;42.668;23.346;2023-02-18T04:56:28;95184.12;;;6.04;59.80
5777;BME280;2914;42.668;23.346;2023-02-18T04:58:57;95187.56;;;6.11;59.59
5777;BME280;2914;42.668;23.346;2023-02-18T05:01:26;95191.67;;;6.08;59.62
5777;BME280;2914;42.668;23.346;2023-02-18T05:03:55;95198.77;;;6.14;59.50
5777;BME280;2914;42.668;23.346;2023-02-18T05:06:25;95207.03;;;6.07;59.64
5777;BME280;2914;42.668;23.346;2023-02-18T05:08:54;95211.80;;;6.08;59.83
5777;BME280;2914;42.668;23.346;2023-02-18T05:11:23;95211.89;;;6.06;60.03
5777;BME280;2914;42.668;23.346;2023-02-18T05:13:52;95207.83;;;6.15;59.67
5777;BME280;2914;42.668;23.346;2023-02-18T05:16:21;95209.63;;;6.15;59.68
5777;BME280;2914;42.668;23.346;2023-02-18T05:18:50;95191.87;;;6.05;59.69
5777;BME280;2914;42.668;23.346;2023-02-18T05:21:20;95192.63;;;5.93;60.13
5777;BME280;2914;42.668;23.346;2023-02-18T05:23:49;95202.38;;;5.91;59.97
5777;BME280;2914;42.668;23.346;2023-02-18T05:26:18;95200.79;;;5.88;59.96
5777;BME280;2914;42.668;23.346;2023-02-18T05:28:47;95195.09;;;5.82;60.29
5777;BME280;2914;42.668;23.346;2023-02-18T05:31:16;95185.41;;;5.69;60.57
5777;BME280;2914;42.668;23.346;2023-02-18T05:33:46;95189.41;;;5.75;60.84
5777;BME280;2914;42.668;23.346;2023-02-18T05:36:15;95197.99;;;5.84;60.60
5777;BME280;2914;42.668;23.346;2023-02-18T05:38:44;95188.42;;;5.90;60.67
5777;BME280;2914;42.668;23.346;2023-02-18T05:41:13;95182.97;;;5.73;61.29
5777;BME280;2914;42.668;23.346;2023-02-18T05:43:42;95183.02;;;5.86;60.97
5777;BME280;2914;42.668;23.346;2023-02-18T05:46:29;95187.04;;;5.85;61.29
5777;BME280;2914;42.668;23.346;2023-02-18T05:48:58;95186.77;;;5.89;61.02
5777;BME280;2914;42.668;23.346;2023-02-18T05:51:27;95195.66;;;5.87;61.37
5777;BME280;2914;42.668;23.346;2023-02-18T05:53:56;95190.87;;;5.93;61.17
5777;BME280;2914;42.668;23.346;2023-02-18T05:56:25;95195.73;;;6.00;60.53
5777;BME280;2914;42.668;23.346;2023-02-18T05:58:55;95217.52;;;6.00;60.33
5777;BME280;2914;42.668;23.346;2023-02-18T06:01:24;95214.61;;;5.90;60.55
5777;BME280;2914;42.668;23.346;2023-02-18T06:03:53;95211.14;;;6.04;60.02
5777;BME280;2914;42.668;23.346;2023-02-18T06:06:22;95220.95;;;6.08;60.22
5777;BME280;2914;42.668;23.346;2023-02-18T06:08:51;95218.61;;;5.96;60.60
5777;BME280;2914;42.668;23.346;2023-02-18T06:11:21;95214.59;;;6.12;60.22
5777;BME280;2914;42.668;23.346;2023-02-18T06:13:50;95202.17;;;5.94;60.69
5777;BME280;2914;42.668;23.346;2023-02-18T06:16:19;95204.89;;;6.00;61.31
5777;BME280;2914;42.668;23.346;2023-02-18T06:18:48;95203.38;;;6.03;60.67
5777;BME280;2914;42.668;23.346;2023-02-18T06:21:17;95209.27;;;5.65;62.05
5777;BME280;2914;42.668;23.346;2023-02-18T06:23:47;95204.89;;;5.92;61.42
5777;BME280;2914;42.668;23.346;2023-02-18T06:26:16;95204.24;;;6.03;61.41
5777;BME280;2914;42.668;23.346;2023-02-18T06:28:45;95209.78;;;5.84;61.55
5777;BME280;2914;42.668;23.346;2023-02-18T06:31:14;95201.11;;;6.11;72.68
5777;BME280;2914;42.668;23.346;2023-02-18T06:33:44;95206.39;;;6.51;72.73
5777;BME280;2914;42.668;23.346;2023-02-18T06:36:13;95200.48;;;6.35;64.18
5777;BME280;2914;42.668;23.346;2023-02-18T06:38:44;95193.80;;;6.16;62.79
5777;BME280;2914;42.668;23.346;2023-02-18T06:41:14;95200.66;;;6.32;63.76
5777;BME280;2914;42.668;23.346;2023-02-18T06:43:43;95202.45;;;6.31;63.47
5777;BME280;2914;42.668;23.346;2023-02-18T06:46:12;95206.48;;;6.30;63.73
5777;BME280;2914;42.668;23.346;2023-02-18T06:48:41;95201.49;;;6.52;62.36
5777;BME280;2914;42.668;23.346;2023-02-18T06:51:10;95204.27;;;6.64;61.32
5777;BME280;2914;42.668;23.346;2023-02-18T06:53:40;95223.34;;;6.66;59.85
5777;BME280;2914;42.668;23.346;2023-02-18T06:56:09;95208.98;;;6.71;59.57
5777;BME280;2914;42.668;23.346;2023-02-18T06:58:38;95208.11;;;6.58;59.34
5777;BME280;2914;42.668;23.346;2023-02-18T07:01:07;95201.27;;;6.62;60.38
5777;BME280;2914;42.668;23.346;2023-02-18T07:03:36;95209.84;;;6.72;60.69
5777;BME280;2914;42.668;23.346;2023-02-18T07:06:06;95212.80;;;6.73;60.04
5777;BME280;2914;42.668;23.346;2023-02-18T07:08:36;95216.67;;;6.87;59.39
5777;BME280;2914;42.668;23.346;2023-02-18T07:11:06;95209.17;;;7.01;59.27
5777;BME280;2914;42.668;23.346;2023-02-18T07:13:35;95202.45;;;7.10;58.95
5777;BME280;2914;42.668;23.346;2023-02-18T07:16:05;95214.54;;;7.25;58.38
5777;BME280;2914;42.668;23.346;2023-02-18T07:18:34;95204.50;;;7.38;57.61
5777;BME280;2914;42.668;23.346;2023-02-18T07:21:03;95205.72;;;7.01;58.76
5777;BME280;2914;42.668;23.346;2023-02-18T07:23:32;95199.11;;;7.08;58.36
5777;BME280;2914;42.668;23.346;2023-02-18T07:26:07;95200.48;;;7.01;58.28
5777;BME280;2914;42.668;23.346;2023-02-18T07:28:37;95200.48;;;7.01;58.28
5777;BME280;2914;42.668;23.346;2023-02-18T07:31:07;95196.75;;;6.65;58.88
5777;BME280;2914;42.668;23.346;2023-02-18T07:33:37;95189.41;;;6.90;58.28
5777;BME280;2914;42.668;23.346;2023-02-18T07:36:08;95198.80;;;7.00;57.83
5777;BME280;2914;42.668;23.346;2023-02-18T07:38:38;95202.94;;;6.96;57.73
5777;BME280;2914;42.668;23.346;2023-02-18T07:41:10;95215.41;;;6.80;58.67
5777;BME280;2914;42.668;23.346;2023-02-18T07:43:40;95216.56;;;6.89;58.31
5777;BME280;2914;42.668;23.346;2023-02-18T07:46:09;95225.19;;;7.04;58.18
5777;BME280;2914;42.668;23.346;2023-02-18T07:48:38;95220.63;;;7.13;57.45
5777;BME280;2914;42.668;23.346;2023-02-18T07:51:09;95217.36;;;7.09;57.47
5777;BME280;2914;42.668;23.346;2023-02-18T07:53:39;95221.81;;;7.27;57.31
5777;BME280;2914;42.668;23.346;2023-02-18T07:56:09;95231.36;;;7.16;58.10
5777;BME280;2914;42.668;23.346;2023-02-18T07:58:39;95230.27;;;7.38;58.02
5777;BME280;2914;42.668;23.346;2023-02-18T08:01:09;95221.87;;;7.46;56.98
5777;BME280;2914;42.668;23.346;2023-02-18T08:03:39;95221.47;;;7.71;56.02
5777;BME280;2914;42.668;23.346;2023-02-18T08:06:13;95221.47;;;7.71;56.02
5777;BME280;2914;42.668;23.346;2023-02-18T08:08:43;95217.08;;;7.77;55.56
5777;BME280;2914;42.668;23.346;2023-02-18T08:11:12;95217.44;;;8.15;56.35
5777;BME280;2914;42.668;23.346;2023-02-18T08:13:41;95217.44;;;8.15;56.35
5777;BME280;2914;42.668;23.346;2023-02-18T08:16:10;95220.91;;;8.40;55.59
5777;BME280;2914;42.668;23.346;2023-02-18T08:18:40;95191.84;;;8.60;53.26
5777;BME280;2914;42.668;23.346;2023-02-18T08:21:09;95197.88;;;8.73;53.05
5777;BME280;2914;42.668;23.346;2023-02-18T08:23:38;95197.88;;;8.73;53.05
5777;BME280;2914;42.668;23.346;2023-02-18T08:26:08;95202.35;;;8.95;52.85
5777;BME280;2914;42.668;23.346;2023-02-18T08:28:37;95203.97;;;9.15;53.33
5777;BME280;2914;42.668;23.346;2023-02-18T08:31:07;95195.20;;;8.97;52.25
5777;BME280;2914;42.668;23.346;2023-02-18T08:33:37;95195.20;;;8.97;52.25
5777;BME280;2914;42.668;23.346;2023-02-18T08:36:08;95197.56;;;8.83;52.67
5777;BME280;2914;42.668;23.346;2023-02-18T08:38:37;95197.56;;;8.83;52.67
5777;BME280;2914;42.668;23.346;2023-02-18T08:41:08;95199.95;;;8.87;52.58
5777;BME280;2914;42.668;23.346;2023-02-18T08:43:37;95199.95;;;8.87;52.58
5777;BME280;2914;42.668;23.346;2023-02-18T08:46:06;95177.19;;;8.69;52.11
5777;BME280;2914;42.668;23.346;2023-02-18T08:48:36;95182.48;;;8.86;52.52
5777;BME280;2914;42.668;23.346;2023-02-18T08:51:13;95182.48;;;8.86;52.52
5777;BME280;2914;42.668;23.346;2023-02-18T08:53:43;95190.64;;;8.99;52.14
5777;BME280;2914;42.668;23.346;2023-02-18T08:56:14;95201.21;;;9.16;51.94
5777;BME280;2914;42.668;23.346;2023-02-18T08:58:44;95200.83;;;8.98;51.27
5777;BME280;2914;42.668;23.346;2023-02-18T09:01:13;95201.41;;;9.02;52.25
5777;BME280;2914;42.668;23.346;2023-02-18T09:03:42;95201.41;;;9.02;52.25
5777;BME280;2914;42.668;23.346;2023-02-18T09:06:11;95191.75;;;9.03;51.64
5777;BME280;2914;42.668;23.346;2023-02-18T09:08:40;95199.04;;;9.16;51.33
5777;BME280;2914;42.668;23.346;2023-02-18T09:11:11;95198.92;;;9.17;51.71
5777;BME280;2914;42.668;23.346;2023-02-18T09:13:40;95199.90;;;9.45;51.28
5777;BME280;2914;42.668;23.346;2023-02-18T09:16:11;95199.90;;;9.45;51.28
5777;BME280;2914;42.668;23.346;2023-02-18T09:18:41;95202.19;;;9.55;51.04
5777;BME280;2914;42.668;23.346;2023-02-18T09:21:12;95189.84;;;9.56;50.68
5777;BME280;2914;42.668;23.346;2023-02-18T09:23:42;95197.17;;;9.58;50.65
5777;BME280;2914;42.668;23.346;2023-02-18T09:26:14;95193.08;;;9.37;51.12
5777;BME280;2914;42.668;23.346;2023-02-18T09:28:44;95192.25;;;9.42;51.19
5777;BME280;2914;42.668;23.346;2023-02-18T09:33:54;95175.96;;;9.31;51.35
5777;BME280;2914;42.668;23.346;2023-02-18T09:36:24;95175.96;;;9.31;51.35
5777;BME280;2914;42.668;23.346;2023-02-18T09:38:54;95172.50;;;9.64;50.87
5777;BME280;2914;42.668;23.346;2023-02-18T09:41:29;95172.50;;;9.64;50.87
5777;BME280;2914;42.668;23.346;2023-02-18T09:44:01;95157.62;;;9.75;50.59
5777;BME280;2914;42.668;23.346;2023-02-18T09:46:34;95159.90;;;9.85;50.69
5777;BME280;2914;42.668;23.346;2023-02-18T09:49:07;95163.78;;;10.08;50.62
5777;BME280;2914;42.668;23.346;2023-02-18T09:51:36;95173.80;;;10.25;49.87
5777;BME280;2914;42.668;23.346;2023-02-18T09:54:07;95172.70;;;10.39;49.13
5777;BME280;2914;42.668;23.346;2023-02-18T09:56:37;95173.89;;;10.41;48.98
5777;BME280;2914;42.668;23.346;2023-02-18T09:59:10;95178.33;;;10.29;49.06
5777;BME280;2914;42.668;23.346;2023-02-18T10:01:40;95171.64;;;10.30;49.10
5777;BME280;2914;42.668;23.346;2023-02-18T10:04:14;95162.88;;;10.30;49.04
5777;BME280;2914;42.668;23.346;2023-02-18T10:09:30;95158.20;;;10.33;49.25
5777;BME280;2914;42.668;23.346;2023-02-18T10:12:06;95155.20;;;10.38;49.10
5777;BME280;2914;42.668;23.346;2023-02-18T10:14:33;95154.81;;;10.48;48.82
5777;BME280;2914;42.668;23.346;2023-02-18T10:17:04;95149.25;;;10.57;48.40
5777;BME280;2914;42.668;23.346;2023-02-18T10:19:37;95146.67;;;10.67;48.26
5777;BME280;2914;42.668;23.346;2023-02-18T10:22:09;95150.36;;;10.76;47.92
5777;BME280;2914;42.668;23.346;2023-02-18T10:24:41;95152.47;;;10.82;47.72
5777;BME280;2914;42.668;23.346;2023-02-18T10:27:16;95156.16;;;10.85;47.76
5777;BME280;2914;42.668;23.346;2023-02-18T10:29:43;95143.84;;;11.01;47.27
5777;BME280;2914;42.668;23.346;2023-02-18T10:32:17;95137.33;;;11.05;47.29
5777;BME280;2914;42.668;23.346;2023-02-18T10:34:50;95136.93;;;11.10;46.99
5777;BME280;2914;42.668;23.346;2023-02-18T10:37:34;95134.14;;;11.17;46.70
5777;BME280;2914;42.668;23.346;2023-02-18T10:40:09;95129.14;;;11.24;46.42
5777;BME280;2914;42.668;23.346;2023-02-18T10:42:45;95130.17;;;11.32;46.56
5777;BME280;2914;42.668;23.346;2023-02-18T10:45:21;95123.02;;;11.38;46.27
5777;BME280;2914;42.668;23.346;2023-02-18T10:47:56;95114.03;;;11.51;45.70
5777;BME280;2914;42.668;23.346;2023-02-18T10:50:28;95116.92;;;11.63;45.50
5777;BME280;2914;42.668;23.346;2023-02-18T10:53:01;95111.19;;;11.74;45.44
5777;BME280;2914;42.668;23.346;2023-02-18T10:55:38;95096.17;;;11.84;45.10
5777;BME280;2914;42.668;23.346;2023-02-18T10:58:26;95091.00;;;11.98;45.04
5777;BME280;2914;42.668;23.346;2023-02-18T11:00:56;95093.04;;;12.10;44.54
5777;BME280;2914;42.668;23.346;2023-02-18T11:03:35;95093.89;;;12.20;44.40
5777;BME280;2914;42.668;23.346;2023-02-18T11:05:59;95085.17;;;12.33;44.77
5777;BME280;2914;42.668;23.346;2023-02-18T11:11:16;95079.53;;;12.52;43.39
5777;BME280;2914;42.668;23.346;2023-02-18T11:13:52;95072.50;;;12.47;43.60
5777;BME280;2914;42.668;23.346;2023-02-18T11:16:23;95070.95;;;12.54;43.18
5777;BME280;2914;42.668;23.346;2023-02-18T11:18:53;95053.87;;;12.62;43.48
5777;BME280;2914;42.668;23.346;2023-02-18T11:21:27;95061.11;;;12.70;42.77
5777;BME280;2914;42.668;23.346;2023-02-18T11:23:56;95056.03;;;12.72;42.24
5777;BME280;2914;42.668;23.346;2023-02-18T11:26:30;95037.05;;;12.77;42.15
5777;BME280;2914;42.668;23.346;2023-02-18T11:29:04;95037.47;;;12.82;42.19
5777;BME280;2914;42.668;23.346;2023-02-18T11:31:39;95028.88;;;12.94;40.85
5777;BME280;2914;42.668;23.346;2023-02-18T11:34:15;95024.11;;;13.12;40.97
5777;BME280;2914;42.668;23.346;2023-02-18T11:36:45;95020.80;;;13.23;40.92
5777;BME280;2914;42.668;23.346;2023-02-18T11:39:20;95012.85;;;13.51;46.45
5777;BME280;2914;42.668;23.346;2023-02-18T11:41:56;95005.25;;;13.52;40.28
5777;BME280;2914;42.668;23.346;2023-02-18T11:44:30;94999.25;;;13.50;41.95
5777;BME280;2914;42.668;23.346;2023-02-18T11:47:02;94996.38;;;13.57;39.02
5777;BME280;2914;42.668;23.346;2023-02-18T11:49:33;94993.92;;;13.60;38.69
5777;BME280;2914;42.668;23.346;2023-02-18T11:55:02;94976.27;;;13.87;38.29
5777;BME280;2914;42.668;23.346;2023-02-18T11:57:34;94982.27;;;13.89;38.21
5777;BME280;2914;42.668;23.346;2023-02-18T12:00:14;94979.14;;;13.94;37.79
5777;BME280;2914;42.668;23.346;2023-02-18T12:02:43;94971.73;;;13.97;37.72
5777;BME280;2914;42.668;23.346;2023-02-18T12:07:55;94951.78;;;14.11;37.89
5777;BME280;2914;42.668;23.346;2023-02-18T12:10:29;94942.05;;;14.20;37.53
5777;BME280;2914;42.668;23.346;2023-02-18T12:13:04;94946.52;;;14.41;36.32
5777;BME280;2914;42.668;23.346;2023-02-18T12:15:43;94934.23;;;14.67;35.50
5777;BME280;2914;42.668;23.346;2023-02-18T12:18:26;94936.39;;;14.63;35.59
5777;BME280;2914;42.668;23.346;2023-02-18T12:21:05;94947.19;;;14.70;36.24
5777;BME280;2914;42.668;23.346;2023-02-18T12:23:37;94945.41;;;14.74;36.61
5777;BME280;2914;42.668;23.346;2023-02-18T12:26:14;94946.88;;;14.69;37.07
5777;BME280;2914;42.668;23.346;2023-02-18T12:28:53;94943.51;;;14.63;37.50
5777;BME280;2914;42.668;23.346;2023-02-18T12:34:28;94937.09;;;14.47;38.83
5777;BME280;2914;42.668;23.346;2023-02-18T12:37:03;94937.41;;;14.44;39.03
5777;BME280;2914;42.668;23.346;2023-02-18T12:39:45;94919.13;;;14.41;39.19
5777;BME280;2914;42.668;23.346;2023-02-18T12:42:21;94928.26;;;14.38;39.50
5777;BME280;2914;42.668;23.346;2023-02-18T12:44:57;94920.30;;;14.38;39.55
5777;BME280;2914;42.668;23.346;2023-02-18T12:47:35;94913.12;;;14.35;39.54
5777;BME280;2914;42.668;23.346;2023-02-18T12:50:38;94916.13;;;14.36;39.83
5777;BME280;2914;42.668;23.346;2023-02-18T12:53:19;94902.86;;;14.36;39.92
5777;BME280;2914;42.668;23.346;2023-02-18T12:56:04;94904.16;;;14.32;39.80
5777;BME280;2914;42.668;23.346;2023-02-18T12:58:40;94907.00;;;14.34;39.73
5777;BME280;2914;42.668;23.346;2023-02-18T13:01:20;94901.05;;;14.40;38.60
5777;BME280;2914;42.668;23.346;2023-02-18T13:04:00;94908.24;;;14.48;38.60
5777;BME280;2914;42.668;23.346;2023-02-18T13:13:07;94915.86;;;14.73;37.79
5777;BME280;2914;42.668;23.346;2023-02-18T13:15:40;94904.89;;;14.72;37.64
5777;BME280;2914;42.668;23.346;2023-02-18T13:18:13;94909.23;;;14.78;37.25
5777;BME280;2914;42.668;23.346;2023-02-18T13:20:45;94902.30;;;14.89;36.82
5777;BME280;2914;42.668;23.346;2023-02-18T13:23:19;94897.84;;;14.89;36.58
5777;BME280;2914;42.668;23.346;2023-02-18T13:25:52;94895.40;;;15.00;36.37
5777;BME280;2914;42.668;23.346;2023-02-18T13:28:24;94887.09;;;15.03;36.57
5777;BME280;2914;42.668;23.346;2023-02-18T13:30:59;94896.23;;;15.09;36.91
5777;BME280;2914;42.668;23.346;2023-02-18T13:33:33;94893.08;;;15.09;36.62
5777;BME280;2914;42.668;23.346;2023-02-18T13:36:04;94897.57;;;15.09;36.45
5777;BME280;2914;42.668;23.346;2023-02-18T13:41:40;94901.73;;;15.12;37.16
5777;BME280;2914;42.668;23.346;2023-02-18T13:46:59;94899.20;;;14.98;38.76
5777;BME280;2914;42.668;23.346;2023-02-18T13:49:34;94907.95;;;14.86;39.00
5777;BME280;2914;42.668;23.346;2023-02-18T13:52:05;94906.77;;;14.80;39.30
5777;BME280;2914;42.668;23.346;2023-02-18T13:54:37;94898.25;;;14.72;39.55
5777;BME280;2914;42.668;23.346;2023-02-18T13:57:12;94902.20;;;14.64;40.02
5777;BME280;2914;42.668;23.346;2023-02-18T13:59:43;94900.66;;;14.62;40.14
5777;BME280;2914;42.668;23.346;2023-02-18T14:02:32;94892.81;;;14.52;40.60
5777;BME280;2914;42.668;23.346;2023-02-18T14:05:20;94891.63;;;14.46;40.74
5777;BME280;2914;42.668;23.346;2023-02-18T14:07:52;94894.09;;;14.43;40.86
5777;BME280;2914;42.668;23.346;2023-02-18T14:10:29;94895.75;;;14.40;40.66
5777;BME280;2914;42.668;23.346;2023-02-18T14:16:04;94886.25;;;14.34;40.74
5777;BME280;2914;42.668;23.346;2023-02-18T14:21:37;94890.82;;;14.19;41.66
5777;BME280;2914;42.668;23.346;2023-02-18T14:24:10;94899.55;;;14.12;40.95
5777;BME280;2914;42.668;23.346;2023-02-18T14:26:48;94900.19;;;14.05;41.11
5777;BME280;2914;42.668;23.346;2023-02-18T14:29:25;94900.81;;;14.03;41.03